sensor_id;sensor_type;location;lat;lon;timestamp;P1;durP1;ratioP1;P2;durP2;ratioP2
24873;SDS011;12945;42.648;23.370;2022-10-16T00:01:55;22.23;;;13.85;;
24873;SDS011;12945;42.648;23.370;2022-10-16T00:04:20;23.10;;;13.05;;
24873;SDS011;12945;42.648;23.370;2022-10-16T00:06:46;21.65;;;13.18;;
24873;SDS011;12945;42.648;23.370;2022-10-16T00:09:11;20.75;;;11.88;;
24873;SDS011;12945;42.648;23.370;2022-10-16T00:11:37;31.80;;;12.48;;
24873;SDS011;12945;42.648;23.370;2022-10-16T00:14:03;19.10;;;12.07;;
24873;SDS011;12945;42.648;23.370;2022-10-16T00:16:29;20.63;;;10.95;;
24873;SDS011;12945;42.648;23.370;2022-10-16T00:18:55;21.10;;;12.43;;
24873;SDS011;12945;42.648;23.370;2022-10-16T00:21:22;22.27;;;12.20;;
24873;SDS011;12945;42.648;23.370;2022-10-16T00:23:51;20.05;;;11.60;;
24873;SDS011;12945;42.648;23.370;2022-10-16T00:26:17;19.85;;;12.00;;
24873;SDS011;12945;42.648;23.370;2022-10-16T00:28:42;21.40;;;11.10;;
24873;SDS011;12945;42.648;23.370;2022-10-16T00:31:10;19.13;;;11.50;;
24873;SDS011;12945;42.648;23.370;2022-10-16T00:33:37;19.25;;;11.20;;
24873;SDS011;12945;42.648;23.370;2022-10-16T00:36:03;20.15;;;11.98;;
24873;SDS011;12945;42.648;23.370;2022-10-16T00:38:28;19.20;;;11.90;;
24873;SDS011;12945;42.648;23.370;2022-10-16T00:40:54;19.15;;;10.68;;
24873;SDS011;12945;42.648;23.370;2022-10-16T00:45:57;18.48;;;11.43;;
24873;SDS011;12945;42.648;23.370;2022-10-16T00:48:22;18.98;;;11.88;;
24873;SDS011;12945;42.648;23.370;2022-10-16T00:50:47;18.08;;;11.02;;
24873;SDS011;12945;42.648;23.370;2022-10-16T00:53:13;21.55;;;10.52;;
24873;SDS011;12945;42.648;23.370;2022-10-16T00:55:39;17.75;;;11.15;;
24873;SDS011;12945;42.648;23.370;2022-10-16T00:58:04;18.42;;;11.77;;
24873;SDS011;12945;42.648;23.370;2022-10-16T01:00:29;15.50;;;10.32;;
24873;SDS011;12945;42.648;23.370;2022-10-16T01:05:55;15.55;;;10.82;;
24873;SDS011;12945;42.648;23.370;2022-10-16T01:08:24;17.48;;;11.02;;
24873;SDS011;12945;42.648;23.370;2022-10-16T01:10:57;20.05;;;12.10;;
24873;SDS011;12945;42.648;23.370;2022-10-16T01:13:31;17.33;;;11.20;;
24873;SDS011;12945;42.648;23.370;2022-10-16T01:16:04;23.58;;;12.00;;
24873;SDS011;12945;42.648;23.370;2022-10-16T01:19:05;19.60;;;12.13;;
24873;SDS011;12945;42.648;23.370;2022-10-16T01:21:24;23.83;;;12.82;;
24873;SDS011;12945;42.648;23.370;2022-10-16T01:24:01;25.42;;;12.90;;
24873;SDS011;12945;42.648;23.370;2022-10-16T01:26:36;21.08;;;12.98;;
24873;SDS011;12945;42.648;23.370;2022-10-16T01:29:03;21.00;;;13.63;;
24873;SDS011;12945;42.648;23.370;2022-10-16T01:31:32;22.70;;;12.88;;
24873;SDS011;12945;42.648;23.370;2022-10-16T01:34:06;25.13;;;13.88;;
24873;SDS011;12945;42.648;23.370;2022-10-16T01:36:35;18.85;;;12.43;;
24873;SDS011;12945;42.648;23.370;2022-10-16T01:39:02;19.92;;;11.88;;
24873;SDS011;12945;42.648;23.370;2022-10-16T01:41:30;17.95;;;11.82;;
24873;SDS011;12945;42.648;23.370;2022-10-16T01:43:58;17.95;;;11.25;;
24873;SDS011;12945;42.648;23.370;2022-10-16T01:46:26;14.25;;;9.73;;
24873;SDS011;12945;42.648;23.370;2022-10-16T01:48:52;18.92;;;10.20;;
24873;SDS011;12945;42.648;23.370;2022-10-16T01:51:17;17.17;;;9.68;;
24873;SDS011;12945;42.648;23.370;2022-10-16T01:53:46;13.65;;;9.35;;
24873;SDS011;12945;42.648;23.370;2022-10-16T01:56:13;17.00;;;8.52;;
24873;SDS011;12945;42.648;23.370;2022-10-16T01:58:49;13.23;;;7.78;;
24873;SDS011;12945;42.648;23.370;2022-10-16T02:01:16;10.80;;;7.50;;
24873;SDS011;12945;42.648;23.370;2022-10-16T02:03:43;13.48;;;7.20;;
24873;SDS011;12945;42.648;23.370;2022-10-16T02:06:09;14.18;;;7.35;;
24873;SDS011;12945;42.648;23.370;2022-10-16T02:08:35;11.00;;;7.38;;
24873;SDS011;12945;42.648;23.370;2022-10-16T02:11:00;13.80;;;6.85;;
24873;SDS011;12945;42.648;23.370;2022-10-16T02:13:29;13.52;;;7.32;;
24873;SDS011;12945;42.648;23.370;2022-10-16T02:15:55;13.38;;;7.35;;
24873;SDS011;12945;42.648;23.370;2022-10-16T02:18:20;13.68;;;6.75;;
24873;SDS011;12945;42.648;23.370;2022-10-16T02:20:51;10.32;;;6.47;;
24873;SDS011;12945;42.648;23.370;2022-10-16T02:23:19;7.90;;;6.47;;
24873;SDS011;12945;42.648;23.370;2022-10-16T02:25:46;11.10;;;6.90;;
24873;SDS011;12945;42.648;23.370;2022-10-16T02:30:42;12.50;;;7.60;;
24873;SDS011;12945;42.648;23.370;2022-10-16T02:35:34;12.88;;;6.50;;
24873;SDS011;12945;42.648;23.370;2022-10-16T02:37:59;13.48;;;6.65;;
24873;SDS011;12945;42.648;23.370;2022-10-16T02:40:26;10.77;;;6.97;;
24873;SDS011;12945;42.648;23.370;2022-10-16T02:42:52;10.88;;;6.90;;
24873;SDS011;12945;42.648;23.370;2022-10-16T02:45:18;10.50;;;7.18;;
24873;SDS011;12945;42.648;23.370;2022-10-16T02:47:43;19.02;;;7.80;;
24873;SDS011;12945;42.648;23.370;2022-10-16T02:50:08;12.82;;;8.32;;
24873;SDS011;12945;42.648;23.370;2022-10-16T02:52:34;14.38;;;9.00;;
24873;SDS011;12945;42.648;23.370;2022-10-16T02:54:59;18.00;;;10.10;;
24873;SDS011;12945;42.648;23.370;2022-10-16T02:57:24;14.85;;;8.80;;
24873;SDS011;12945;42.648;23.370;2022-10-16T02:59:50;15.38;;;10.23;;
24873;SDS011;12945;42.648;23.370;2022-10-16T03:02:15;17.30;;;9.30;;
24873;SDS011;12945;42.648;23.370;2022-10-16T03:04:41;15.90;;;10.30;;
24873;SDS011;12945;42.648;23.370;2022-10-16T03:07:06;17.90;;;9.88;;
24873;SDS011;12945;42.648;23.370;2022-10-16T03:09:32;15.20;;;10.23;;
24873;SDS011;12945;42.648;23.370;2022-10-16T03:11:57;16.95;;;9.43;;
24873;SDS011;12945;42.648;23.370;2022-10-16T03:14:23;13.73;;;8.77;;
24873;SDS011;12945;42.648;23.370;2022-10-16T03:16:48;9.43;;;7.28;;
24873;SDS011;12945;42.648;23.370;2022-10-16T03:19:13;15.77;;;8.75;;
24873;SDS011;12945;42.648;23.370;2022-10-16T03:21:39;11.98;;;7.07;;
24873;SDS011;12945;42.648;23.370;2022-10-16T03:24:04;14.68;;;8.23;;
24873;SDS011;12945;42.648;23.370;2022-10-16T03:26:29;12.20;;;8.23;;
24873;SDS011;12945;42.648;23.370;2022-10-16T03:28:54;14.65;;;8.77;;
24873;SDS011;12945;42.648;23.370;2022-10-16T03:31:20;13.30;;;9.18;;
24873;SDS011;12945;42.648;23.370;2022-10-16T03:33:45;13.32;;;8.88;;
24873;SDS011;12945;42.648;23.370;2022-10-16T03:36:10;13.85;;;8.93;;
24873;SDS011;12945;42.648;23.370;2022-10-16T03:38:36;14.32;;;9.40;;
24873;SDS011;12945;42.648;23.370;2022-10-16T03:41:01;12.68;;;8.82;;
24873;SDS011;12945;42.648;23.370;2022-10-16T03:43:26;12.35;;;8.85;;
24873;SDS011;12945;42.648;23.370;2022-10-16T03:45:52;12.25;;;8.63;;
24873;SDS011;12945;42.648;23.370;2022-10-16T03:48:17;12.73;;;9.00;;
24873;SDS011;12945;42.648;23.370;2022-10-16T03:50:43;14.75;;;8.82;;
24873;SDS011;12945;42.648;23.370;2022-10-16T03:53:08;13.45;;;8.63;;
24873;SDS011;12945;42.648;23.370;2022-10-16T03:55:34;13.98;;;9.15;;
24873;SDS011;12945;42.648;23.370;2022-10-16T03:57:59;14.55;;;8.70;;
24873;SDS011;12945;42.648;23.370;2022-10-16T04:00:25;12.82;;;8.55;;
24873;SDS011;12945;42.648;23.370;2022-10-16T04:02:50;15.65;;;9.50;;
24873;SDS011;12945;42.648;23.370;2022-10-16T04:05:15;23.98;;;11.20;;
24873;SDS011;12945;42.648;23.370;2022-10-16T04:07:40;19.48;;;10.80;;
24873;SDS011;12945;42.648;23.370;2022-10-16T04:10:06;16.33;;;10.73;;
24873;SDS011;12945;42.648;23.370;2022-10-16T04:12:31;18.52;;;10.15;;
24873;SDS011;12945;42.648;23.370;2022-10-16T04:14:56;21.52;;;11.32;;
24873;SDS011;12945;42.648;23.370;2022-10-16T04:17:22;17.20;;;10.75;;
24873;SDS011;12945;42.648;23.370;2022-10-16T04:19:47;17.67;;;11.00;;
24873;SDS011;12945;42.648;23.370;2022-10-16T04:22:12;21.38;;;11.18;;
24873;SDS011;12945;42.648;23.370;2022-10-16T04:24:37;18.20;;;11.00;;
24873;SDS011;12945;42.648;23.370;2022-10-16T04:27:03;21.48;;;11.98;;
24873;SDS011;12945;42.648;23.370;2022-10-16T04:29:28;22.55;;;11.88;;
24873;SDS011;12945;42.648;23.370;2022-10-16T04:31:53;24.60;;;11.48;;
24873;SDS011;12945;42.648;23.370;2022-10-16T04:34:19;20.35;;;11.68;;
24873;SDS011;12945;42.648;23.370;2022-10-16T04:36:46;19.55;;;11.50;;
24873;SDS011;12945;42.648;23.370;2022-10-16T04:39:11;20.27;;;12.45;;
24873;SDS011;12945;42.648;23.370;2022-10-16T04:41:36;19.92;;;12.02;;
24873;SDS011;12945;42.648;23.370;2022-10-16T04:44:02;16.95;;;10.68;;
24873;SDS011;12945;42.648;23.370;2022-10-16T04:46:27;17.17;;;10.32;;
24873;SDS011;12945;42.648;23.370;2022-10-16T04:48:52;18.60;;;10.57;;
24873;SDS011;12945;42.648;23.370;2022-10-16T04:51:18;16.90;;;10.43;;
24873;SDS011;12945;42.648;23.370;2022-10-16T04:53:44;21.73;;;12.60;;
24873;SDS011;12945;42.648;23.370;2022-10-16T04:56:09;22.55;;;13.23;;
24873;SDS011;12945;42.648;23.370;2022-10-16T04:58:34;26.13;;;12.80;;
24873;SDS011;12945;42.648;23.370;2022-10-16T05:00:59;21.83;;;11.60;;
24873;SDS011;12945;42.648;23.370;2022-10-16T05:03:25;20.20;;;11.52;;
24873;SDS011;12945;42.648;23.370;2022-10-16T05:05:50;23.45;;;12.43;;
24873;SDS011;12945;42.648;23.370;2022-10-16T05:08:16;23.60;;;12.13;;
24873;SDS011;12945;42.648;23.370;2022-10-16T05:10:42;24.38;;;12.50;;
24873;SDS011;12945;42.648;23.370;2022-10-16T05:13:07;21.67;;;11.15;;
24873;SDS011;12945;42.648;23.370;2022-10-16T05:15:32;21.55;;;11.60;;
24873;SDS011;12945;42.648;23.370;2022-10-16T05:17:58;19.17;;;12.02;;
24873;SDS011;12945;42.648;23.370;2022-10-16T05:20:23;16.95;;;11.15;;
24873;SDS011;12945;42.648;23.370;2022-10-16T05:22:48;17.10;;;10.30;;
24873;SDS011;12945;42.648;23.370;2022-10-16T05:25:14;17.73;;;9.98;;
24873;SDS011;12945;42.648;23.370;2022-10-16T05:27:39;22.98;;;10.40;;
24873;SDS011;12945;42.648;23.370;2022-10-16T05:30:04;23.80;;;11.85;;
24873;SDS011;12945;42.648;23.370;2022-10-16T05:32:30;14.38;;;11.07;;
24873;SDS011;12945;42.648;23.370;2022-10-16T05:34:55;14.88;;;9.93;;
24873;SDS011;12945;42.648;23.370;2022-10-16T05:37:20;16.45;;;10.93;;
24873;SDS011;12945;42.648;23.370;2022-10-16T05:39:46;15.73;;;10.50;;
24873;SDS011;12945;42.648;23.370;2022-10-16T05:42:11;13.35;;;9.18;;
24873;SDS011;12945;42.648;23.370;2022-10-16T05:44:36;16.60;;;10.23;;
24873;SDS011;12945;42.648;23.370;2022-10-16T05:47:02;15.73;;;10.10;;
24873;SDS011;12945;42.648;23.370;2022-10-16T05:49:27;22.15;;;10.38;;
24873;SDS011;12945;42.648;23.370;2022-10-16T05:51:52;17.38;;;9.80;;
24873;SDS011;12945;42.648;23.370;2022-10-16T05:54:18;13.95;;;9.55;;
24873;SDS011;12945;42.648;23.370;2022-10-16T05:56:43;11.95;;;8.50;;
24873;SDS011;12945;42.648;23.370;2022-10-16T05:59:08;14.02;;;9.02;;
24873;SDS011;12945;42.648;23.370;2022-10-16T06:01:34;16.75;;;9.05;;
24873;SDS011;12945;42.648;23.370;2022-10-16T06:04:00;11.02;;;8.20;;
24873;SDS011;12945;42.648;23.370;2022-10-16T06:06:26;14.10;;;8.65;;
24873;SDS011;12945;42.648;23.370;2022-10-16T06:08:52;12.85;;;8.65;;
24873;SDS011;12945;42.648;23.370;2022-10-16T06:11:20;13.38;;;8.23;;
24873;SDS011;12945;42.648;23.370;2022-10-16T06:13:48;12.57;;;8.32;;
24873;SDS011;12945;42.648;23.370;2022-10-16T06:16:14;20.13;;;8.45;;
24873;SDS011;12945;42.648;23.370;2022-10-16T06:18:39;13.07;;;7.75;;
24873;SDS011;12945;42.648;23.370;2022-10-16T06:21:08;12.18;;;8.02;;
24873;SDS011;12945;42.648;23.370;2022-10-16T06:23:34;23.75;;;7.68;;
24873;SDS011;12945;42.648;23.370;2022-10-16T06:26:06;12.35;;;7.43;;
24873;SDS011;12945;42.648;23.370;2022-10-16T06:28:32;21.42;;;7.43;;
24873;SDS011;12945;42.648;23.370;2022-10-16T06:31:01;11.07;;;7.30;;
24873;SDS011;12945;42.648;23.370;2022-10-16T06:33:26;10.98;;;7.40;;
24873;SDS011;12945;42.648;23.370;2022-10-16T06:35:52;13.05;;;6.93;;
24873;SDS011;12945;42.648;23.370;2022-10-16T06:38:17;13.27;;;7.45;;
24873;SDS011;12945;42.648;23.370;2022-10-16T06:40:42;12.30;;;6.93;;
24873;SDS011;12945;42.648;23.370;2022-10-16T06:43:07;9.07;;;6.72;;
24873;SDS011;12945;42.648;23.370;2022-10-16T06:45:33;12.98;;;7.50;;
24873;SDS011;12945;42.648;23.370;2022-10-16T06:47:58;10.90;;;7.07;;
24873;SDS011;12945;42.648;23.370;2022-10-16T06:50:23;11.13;;;6.60;;
24873;SDS011;12945;42.648;23.370;2022-10-16T06:52:48;11.48;;;6.40;;
24873;SDS011;12945;42.648;23.370;2022-10-16T06:55:14;11.20;;;6.95;;
24873;SDS011;12945;42.648;23.370;2022-10-16T06:57:40;10.10;;;6.65;;
24873;SDS011;12945;42.648;23.370;2022-10-16T07:00:05;10.85;;;7.45;;
24873;SDS011;12945;42.648;23.370;2022-10-16T07:02:31;9.25;;;6.80;;
24873;SDS011;12945;42.648;23.370;2022-10-16T07:04:56;11.57;;;7.22;;
24873;SDS011;12945;42.648;23.370;2022-10-16T07:07:22;20.35;;;7.32;;
24873;SDS011;12945;42.648;23.370;2022-10-16T07:09:49;15.65;;;7.03;;
24873;SDS011;12945;42.648;23.370;2022-10-16T07:12:15;10.13;;;7.40;;
24873;SDS011;12945;42.648;23.370;2022-10-16T07:14:40;12.45;;;7.95;;
24873;SDS011;12945;42.648;23.370;2022-10-16T07:17:05;13.80;;;8.63;;
24873;SDS011;12945;42.648;23.370;2022-10-16T07:19:30;15.02;;;8.43;;
24873;SDS011;12945;42.648;23.370;2022-10-16T07:21:56;13.77;;;8.60;;
24873;SDS011;12945;42.648;23.370;2022-10-16T07:24:22;21.42;;;12.75;;
24873;SDS011;12945;42.648;23.370;2022-10-16T07:26:47;20.65;;;9.25;;
24873;SDS011;12945;42.648;23.370;2022-10-16T07:29:16;17.75;;;9.45;;
24873;SDS011;12945;42.648;23.370;2022-10-16T07:31:42;21.27;;;9.90;;
24873;SDS011;12945;42.648;23.370;2022-10-16T07:34:08;19.13;;;9.93;;
24873;SDS011;12945;42.648;23.370;2022-10-16T07:36:34;22.45;;;9.73;;
24873;SDS011;12945;42.648;23.370;2022-10-16T07:38:59;17.10;;;10.77;;
24873;SDS011;12945;42.648;23.370;2022-10-16T07:41:24;15.15;;;9.32;;
24873;SDS011;12945;42.648;23.370;2022-10-16T07:43:50;19.33;;;8.93;;
24873;SDS011;12945;42.648;23.370;2022-10-16T07:46:17;16.90;;;10.07;;
24873;SDS011;12945;42.648;23.370;2022-10-16T07:48:43;21.55;;;10.35;;
24873;SDS011;12945;42.648;23.370;2022-10-16T07:51:11;30.00;;;11.25;;
24873;SDS011;12945;42.648;23.370;2022-10-16T07:53:36;19.42;;;10.05;;
24873;SDS011;12945;42.648;23.370;2022-10-16T07:56:03;15.77;;;9.65;;
24873;SDS011;12945;42.648;23.370;2022-10-16T07:58:29;19.25;;;10.13;;
24873;SDS011;12945;42.648;23.370;2022-10-16T08:00:54;18.80;;;9.02;;
24873;SDS011;12945;42.648;23.370;2022-10-16T08:03:20;18.25;;;9.25;;
24873;SDS011;12945;42.648;23.370;2022-10-16T08:05:45;19.77;;;8.75;;
24873;SDS011;12945;42.648;23.370;2022-10-16T08:08:13;16.73;;;9.57;;
24873;SDS011;12945;42.648;23.370;2022-10-16T08:10:39;13.82;;;7.78;;
24873;SDS011;12945;42.648;23.370;2022-10-16T08:13:04;15.27;;;8.00;;
24873;SDS011;12945;42.648;23.370;2022-10-16T08:15:30;16.83;;;7.97;;
24873;SDS011;12945;42.648;23.370;2022-10-16T08:17:59;17.83;;;8.60;;
24873;SDS011;12945;42.648;23.370;2022-10-16T08:20:24;15.18;;;7.28;;
24873;SDS011;12945;42.648;23.370;2022-10-16T08:22:50;17.27;;;8.20;;
24873;SDS011;12945;42.648;23.370;2022-10-16T08:25:15;11.43;;;7.72;;
24873;SDS011;12945;42.648;23.370;2022-10-16T08:27:41;15.07;;;7.40;;
24873;SDS011;12945;42.648;23.370;2022-10-16T08:30:06;12.82;;;7.28;;
24873;SDS011;12945;42.648;23.370;2022-10-16T08:32:31;13.38;;;6.43;;
24873;SDS011;12945;42.648;23.370;2022-10-16T08:34:57;10.40;;;6.00;;
24873;SDS011;12945;42.648;23.370;2022-10-16T08:37:22;12.95;;;6.35;;
24873;SDS011;12945;42.648;23.370;2022-10-16T08:39:47;10.85;;;6.65;;
24873;SDS011;12945;42.648;23.370;2022-10-16T08:42:19;11.02;;;5.75;;
24873;SDS011;12945;42.648;23.370;2022-10-16T08:50:26;9.43;;;4.90;;
24873;SDS011;12945;42.648;23.370;2022-10-16T08:52:52;7.60;;;4.82;;
24873;SDS011;12945;42.648;23.370;2022-10-16T08:57:59;7.70;;;4.15;;
24873;SDS011;12945;42.648;23.370;2022-10-16T09:00:25;12.20;;;4.93;;
24873;SDS011;12945;42.648;23.370;2022-10-16T09:02:52;8.50;;;4.63;;
24873;SDS011;12945;42.648;23.370;2022-10-16T09:05:23;8.30;;;4.60;;
24873;SDS011;12945;42.648;23.370;2022-10-16T09:15:36;6.82;;;4.45;;
24873;SDS011;12945;42.648;23.370;2022-10-16T09:18:10;12.88;;;5.03;;
24873;SDS011;12945;42.648;23.370;2022-10-16T09:23:30;6.35;;;3.95;;
24873;SDS011;12945;42.648;23.370;2022-10-16T09:25:59;7.13;;;3.88;;
24873;SDS011;12945;42.648;23.370;2022-10-16T09:28:24;7.05;;;3.83;;
24873;SDS011;12945;42.648;23.370;2022-10-16T09:30:50;6.63;;;4.13;;
24873;SDS011;12945;42.648;23.370;2022-10-16T09:33:16;6.35;;;3.92;;
24873;SDS011;12945;42.648;23.370;2022-10-16T09:35:46;9.43;;;4.28;;
24873;SDS011;12945;42.648;23.370;2022-10-16T09:38:29;7.72;;;4.43;;
24873;SDS011;12945;42.648;23.370;2022-10-16T09:40:55;14.85;;;4.43;;
24873;SDS011;12945;42.648;23.370;2022-10-16T09:45:59;7.00;;;4.55;;
24873;SDS011;12945;42.648;23.370;2022-10-16T09:48:27;6.97;;;4.15;;
24873;SDS011;12945;42.648;23.370;2022-10-16T09:51:03;7.57;;;3.85;;
24873;SDS011;12945;42.648;23.370;2022-10-16T09:53:45;11.93;;;4.07;;
24873;SDS011;12945;42.648;23.370;2022-10-16T09:56:11;9.02;;;3.83;;
24873;SDS011;12945;42.648;23.370;2022-10-16T09:58:41;8.95;;;3.20;;
24873;SDS011;12945;42.648;23.370;2022-10-16T10:01:11;8.73;;;3.60;;
24873;SDS011;12945;42.648;23.370;2022-10-16T10:06:07;7.37;;;4.17;;
24873;SDS011;12945;42.648;23.370;2022-10-16T10:08:55;7.00;;;3.92;;
24873;SDS011;12945;42.648;23.370;2022-10-16T10:11:37;6.63;;;3.95;;
24873;SDS011;12945;42.648;23.370;2022-10-16T10:14:06;7.07;;;4.30;;
24873;SDS011;12945;42.648;23.370;2022-10-16T10:16:31;7.82;;;4.75;;
24873;SDS011;12945;42.648;23.370;2022-10-16T10:19:00;5.80;;;4.20;;
24873;SDS011;12945;42.648;23.370;2022-10-16T10:21:25;7.45;;;3.83;;
24873;SDS011;12945;42.648;23.370;2022-10-16T10:23:56;8.40;;;4.00;;
24873;SDS011;12945;42.648;23.370;2022-10-16T10:26:23;8.23;;;4.20;;
24873;SDS011;12945;42.648;23.370;2022-10-16T10:28:55;10.95;;;4.50;;
24873;SDS011;12945;42.648;23.370;2022-10-16T10:34:34;9.32;;;3.90;;
24873;SDS011;12945;42.648;23.370;2022-10-16T10:36:39;5.95;;;4.20;;
24873;SDS011;12945;42.648;23.370;2022-10-16T10:46:39;8.25;;;3.80;;
24873;SDS011;12945;42.648;23.370;2022-10-16T10:51:44;5.10;;;3.65;;
24873;SDS011;12945;42.648;23.370;2022-10-16T10:54:16;5.15;;;3.38;;
24873;SDS011;12945;42.648;23.370;2022-10-16T10:56:46;5.80;;;3.55;;
24873;SDS011;12945;42.648;23.370;2022-10-16T10:59:28;4.50;;;3.13;;
24873;SDS011;12945;42.648;23.370;2022-10-16T11:07:25;6.72;;;3.20;;
24873;SDS011;12945;42.648;23.370;2022-10-16T11:10:00;5.60;;;3.10;;
24873;SDS011;12945;42.648;23.370;2022-10-16T11:12:27;7.18;;;3.08;;
24873;SDS011;12945;42.648;23.370;2022-10-16T11:15:40;3.75;;;2.55;;
24873;SDS011;12945;42.648;23.370;2022-10-16T11:17:51;5.05;;;2.60;;
24873;SDS011;12945;42.648;23.370;2022-10-16T11:20:19;3.55;;;2.40;;
24873;SDS011;12945;42.648;23.370;2022-10-16T11:22:47;3.83;;;2.40;;
24873;SDS011;12945;42.648;23.370;2022-10-16T11:25:18;4.38;;;2.80;;
24873;SDS011;12945;42.648;23.370;2022-10-16T11:27:50;3.22;;;2.33;;
24873;SDS011;12945;42.648;23.370;2022-10-16T11:30:24;4.22;;;2.60;;
24873;SDS011;12945;42.648;23.370;2022-10-16T11:33:00;6.57;;;2.60;;
24873;SDS011;12945;42.648;23.370;2022-10-16T11:35:44;5.68;;;2.45;;
24873;SDS011;12945;42.648;23.370;2022-10-16T11:38:34;4.95;;;2.58;;
24873;SDS011;12945;42.648;23.370;2022-10-16T11:41:20;7.15;;;2.88;;
24873;SDS011;12945;42.648;23.370;2022-10-16T11:43:45;3.78;;;2.60;;
24873;SDS011;12945;42.648;23.370;2022-10-16T11:46:18;4.25;;;2.55;;
24873;SDS011;12945;42.648;23.370;2022-10-16T11:48:48;4.10;;;2.60;;
24873;SDS011;12945;42.648;23.370;2022-10-16T11:53:53;5.03;;;2.70;;
24873;SDS011;12945;42.648;23.370;2022-10-16T11:56:20;5.82;;;2.60;;
24873;SDS011;12945;42.648;23.370;2022-10-16T12:03:45;5.20;;;2.85;;
24873;SDS011;12945;42.648;23.370;2022-10-16T12:06:13;5.38;;;2.80;;
24873;SDS011;12945;42.648;23.370;2022-10-16T12:08:43;4.50;;;2.83;;
24873;SDS011;12945;42.648;23.370;2022-10-16T12:11:09;4.85;;;2.53;;
24873;SDS011;12945;42.648;23.370;2022-10-16T12:13:45;5.32;;;2.58;;
24873;SDS011;12945;42.648;23.370;2022-10-16T12:18:42;8.43;;;2.53;;
24873;SDS011;12945;42.648;23.370;2022-10-16T12:21:09;5.63;;;2.45;;
24873;SDS011;12945;42.648;23.370;2022-10-16T12:23:39;4.72;;;2.58;;
24873;SDS011;12945;42.648;23.370;2022-10-16T12:26:11;3.70;;;2.50;;
24873;SDS011;12945;42.648;23.370;2022-10-16T12:28:37;4.50;;;2.58;;
24873;SDS011;12945;42.648;23.370;2022-10-16T12:31:07;5.25;;;2.28;;
24873;SDS011;12945;42.648;23.370;2022-10-16T12:36:13;6.68;;;2.30;;
24873;SDS011;12945;42.648;23.370;2022-10-16T12:38:51;4.22;;;2.17;;
24873;SDS011;12945;42.648;23.370;2022-10-16T12:41:24;5.43;;;2.33;;
24873;SDS011;12945;42.648;23.370;2022-10-16T12:43:50;4.38;;;2.55;;
24873;SDS011;12945;42.648;23.370;2022-10-16T12:48:42;4.33;;;2.83;;
24873;SDS011;12945;42.648;23.370;2022-10-16T12:53:37;6.07;;;2.75;;
24873;SDS011;12945;42.648;23.370;2022-10-16T13:11:26;3.58;;;2.40;;
24873;SDS011;12945;42.648;23.370;2022-10-16T13:22:03;3.58;;;2.55;;
24873;SDS011;12945;42.648;23.370;2022-10-16T13:29:30;3.33;;;2.70;;
24873;SDS011;12945;42.648;23.370;2022-10-16T13:31:55;4.55;;;2.78;;
24873;SDS011;12945;42.648;23.370;2022-10-16T13:34:21;3.42;;;2.53;;
24873;SDS011;12945;42.648;23.370;2022-10-16T13:36:51;3.88;;;2.30;;
24873;SDS011;12945;42.648;23.370;2022-10-16T13:39:23;5.17;;;2.50;;
24873;SDS011;12945;42.648;23.370;2022-10-16T13:42:03;5.00;;;2.67;;
24873;SDS011;12945;42.648;23.370;2022-10-16T13:44:30;5.53;;;3.10;;
24873;SDS011;12945;42.648;23.370;2022-10-16T13:47:01;5.03;;;2.88;;
24873;SDS011;12945;42.648;23.370;2022-10-16T13:49:27;6.35;;;2.33;;
24873;SDS011;12945;42.648;23.370;2022-10-16T13:51:58;4.80;;;2.65;;
24873;SDS011;12945;42.648;23.370;2022-10-16T13:54:25;6.93;;;2.72;;
24873;SDS011;12945;42.648;23.370;2022-10-16T13:56:51;3.38;;;2.92;;
24873;SDS011;12945;42.648;23.370;2022-10-16T13:59:27;4.15;;;2.33;;
24873;SDS011;12945;42.648;23.370;2022-10-16T14:01:53;5.75;;;2.53;;
24873;SDS011;12945;42.648;23.370;2022-10-16T14:04:20;5.43;;;2.78;;
24873;SDS011;12945;42.648;23.370;2022-10-16T14:06:46;5.65;;;2.97;;
24873;SDS011;12945;42.648;23.370;2022-10-16T14:09:26;5.63;;;2.60;;
24873;SDS011;12945;42.648;23.370;2022-10-16T14:14:20;4.90;;;2.70;;
24873;SDS011;12945;42.648;23.370;2022-10-16T14:16:45;6.50;;;2.90;;
24873;SDS011;12945;42.648;23.370;2022-10-16T14:19:17;7.22;;;2.63;;
24873;SDS011;12945;42.648;23.370;2022-10-16T14:21:43;4.10;;;2.50;;
24873;SDS011;12945;42.648;23.370;2022-10-16T14:24:12;8.13;;;2.90;;
24873;SDS011;12945;42.648;23.370;2022-10-16T14:26:42;4.45;;;2.97;;
24873;SDS011;12945;42.648;23.370;2022-10-16T14:29:12;5.35;;;2.65;;
24873;SDS011;12945;42.648;23.370;2022-10-16T14:31:38;7.32;;;2.60;;
24873;SDS011;12945;42.648;23.370;2022-10-16T14:34:04;7.85;;;2.90;;
24873;SDS011;12945;42.648;23.370;2022-10-16T14:36:30;3.60;;;2.47;;
24873;SDS011;12945;42.648;23.370;2022-10-16T14:41:21;5.00;;;2.40;;
24873;SDS011;12945;42.648;23.370;2022-10-16T14:43:50;9.82;;;2.72;;
24873;SDS011;12945;42.648;23.370;2022-10-16T14:46:16;9.57;;;2.53;;
24873;SDS011;12945;42.648;23.370;2022-10-16T14:48:43;4.90;;;2.72;;
24873;SDS011;12945;42.648;23.370;2022-10-16T14:51:13;6.10;;;2.85;;
24873;SDS011;12945;42.648;23.370;2022-10-16T14:53:38;4.68;;;3.03;;
24873;SDS011;12945;42.648;23.370;2022-10-16T14:56:16;7.50;;;2.92;;
24873;SDS011;12945;42.648;23.370;2022-10-16T14:58:42;13.23;;;3.65;;
24873;SDS011;12945;42.648;23.370;2022-10-16T15:01:08;5.30;;;3.00;;
24873;SDS011;12945;42.648;23.370;2022-10-16T15:03:35;10.77;;;3.20;;
24873;SDS011;12945;42.648;23.370;2022-10-16T15:06:01;5.97;;;2.88;;
24873;SDS011;12945;42.648;23.370;2022-10-16T15:08:26;8.20;;;2.90;;
24873;SDS011;12945;42.648;23.370;2022-10-16T15:10:51;7.53;;;3.00;;
24873;SDS011;12945;42.648;23.370;2022-10-16T15:13:17;9.23;;;3.78;;
24873;SDS011;12945;42.648;23.370;2022-10-16T15:15:45;5.68;;;3.50;;
24873;SDS011;12945;42.648;23.370;2022-10-16T15:18:11;8.07;;;4.10;;
24873;SDS011;12945;42.648;23.370;2022-10-16T15:20:38;7.80;;;3.25;;
24873;SDS011;12945;42.648;23.370;2022-10-16T15:23:13;7.15;;;3.35;;
24873;SDS011;12945;42.648;23.370;2022-10-16T15:25:43;8.23;;;3.10;;
24873;SDS011;12945;42.648;23.370;2022-10-16T15:28:08;6.30;;;3.42;;
24873;SDS011;12945;42.648;23.370;2022-10-16T15:30:34;7.68;;;3.28;;
24873;SDS011;12945;42.648;23.370;2022-10-16T15:33:00;9.90;;;3.17;;
24873;SDS011;12945;42.648;23.370;2022-10-16T15:35:25;9.82;;;3.70;;
24873;SDS011;12945;42.648;23.370;2022-10-16T15:37:51;10.82;;;3.25;;
24873;SDS011;12945;42.648;23.370;2022-10-16T15:40:17;9.63;;;3.78;;
24873;SDS011;12945;42.648;23.370;2022-10-16T15:42:42;10.50;;;4.10;;
24873;SDS011;12945;42.648;23.370;2022-10-16T15:45:08;9.50;;;4.47;;
24873;SDS011;12945;42.648;23.370;2022-10-16T15:47:33;12.73;;;3.72;;
24873;SDS011;12945;42.648;23.370;2022-10-16T15:49:59;9.57;;;3.40;;
24873;SDS011;12945;42.648;23.370;2022-10-16T15:52:24;10.75;;;3.60;;
24873;SDS011;12945;42.648;23.370;2022-10-16T15:54:50;7.57;;;4.10;;
24873;SDS011;12945;42.648;23.370;2022-10-16T15:57:15;7.13;;;3.65;;
24873;SDS011;12945;42.648;23.370;2022-10-16T15:59:40;10.75;;;4.30;;
24873;SDS011;12945;42.648;23.370;2022-10-16T16:02:05;9.00;;;4.65;;
24873;SDS011;12945;42.648;23.370;2022-10-16T16:04:33;8.15;;;5.63;;
24873;SDS011;12945;42.648;23.370;2022-10-16T16:06:58;11.60;;;6.90;;
24873;SDS011;12945;42.648;23.370;2022-10-16T16:09:23;17.90;;;8.20;;